Time;durP1;ratioP1;P1;durP2;ratioP2;P2;SDS_P1;SDS_P2;PMS_P1;PMS_P2;Temp;Humidity;BMP_temperature;BMP_pressure;BME280_temperature;BME280_humidity;BME280_pressure;Samples;Min_cycle;Max_cycle;Signal;HPM_P1;HPM_P2
2021/06/11 00:02:16;;;;;;;3.25;3.05;;;18.80;99.90;;;;;;6215646;23;20000;-79
2021/06/11 00:04:41;;;;;;;4.93;3.30;;;18.80;99.90;;;;;;6215352;23;20001;-79
2021/06/11 00:07:07;;;;;;;3.50;2.92;;;18.70;99.90;;;;;;6215243;23;20000;-79
2021/06/11 00:09:33;;;;;;;3.30;3.10;;;18.70;99.90;;;;;;6215416;23;20375;-79
2021/06/11 00:11:59;;;;;;;3.08;2.72;;;18.60;99.90;;;;;;6215501;23;19993;-79
2021/06/11 00:14:24;;;;;;;4.45;3.08;;;18.60;99.90;;;;;;6215538;23;20003;-79
2021/06/11 00:16:50;;;;;;;4.03;2.70;;;18.60;99.90;;;;;;6215282;23;20075;-79
2021/06/11 00:19:16;;;;;;;3.42;3.05;;;18.60;99.90;;;;;;6215519;23;20491;-79
2021/06/11 00:21:41;;;;;;;6.20;3.50;;;18.60;99.90;;;;;;6213197;23;20398;-79
2021/06/11 00:24:07;;;;;;;7.78;3.42;;;18.40;99.90;;;;;;6215261;23;20050;-79
2021/06/11 00:26:33;;;;;;;3.88;2.88;;;18.50;99.90;;;;;;6215249;23;20004;-79
2021/06/11 00:28:59;;;;;;;5.30;3.50;;;18.50;99.90;;;;;;6215623;23;20008;-79
2021/06/11 00:31:24;;;;;;;5.78;3.63;;;18.50;99.90;;;;;;6215398;23;19996;-79
2021/06/11 00:33:50;;;;;;;5.03;3.25;;;18.40;99.90;;;;;;6213647;23;19997;-79
2021/06/11 00:36:16;;;;;;;5.28;3.40;;;18.20;99.90;;;;;;6214811;23;20000;-79
2021/06/11 00:38:42;;;;;;;3.45;3.10;;;18.20;99.90;;;;;;6213536;23;20080;-79
2021/06/11 00:41:08;;;;;;;5.13;3.08;;;18.20;99.90;;;;;;6215236;23;20380;-79
2021/06/11 00:43:34;;;;;;;4.88;3.33;;;18.10;99.90;;;;;;6215037;23;20338;-79
2021/06/11 00:46:00;;;;;;;4.30;2.85;;;18.10;99.90;;;;;;6215072;23;20016;-79
2021/06/11 00:48:25;;;;;;;3.65;3.25;;;18.00;99.90;;;;;;6215161;23;20046;-79
2021/06/11 00:50:51;;;;;;;3.88;3.58;;;18.10;99.90;;;;;;6214651;23;20737;-79
2021/06/11 00:53:17;;;;;;;5.25;3.63;;;18.00;99.90;;;;;;6215116;23;19992;-79
2021/06/11 00:55:44;;;;;;;4.68;3.30;;;17.80;99.90;;;;;;6215025;23;20051;-79
2021/06/11 00:58:12;;;;;;;3.38;3.08;;;17.70;99.90;;;;;;6214697;23;19997;-79
2021/06/11 01:00:38;;;;;;;3.72;3.42;;;17.60;99.90;;;;;;6215002;23;20000;-79
2021/06/11 01:03:05;;;;;;;3.92;3.53;;;17.60;99.90;;;;;;6215079;23;20000;-79
2021/06/11 01:05:31;;;;;;;4.72;3.38;;;17.50;99.90;;;;;;6214394;23;20030;-79
2021/06/11 01:07:57;;;;;;;5.30;3.63;;;17.60;99.90;;;;;;6215062;23;20301;-79
2021/06/11 01:10:24;;;;;;;3.45;3.15;;;17.60;99.90;;;;;;6215557;23;20331;-78
2021/06/11 01:12:52;;;;;;;4.40;3.60;;;17.60;99.90;;;;;;6214863;23;19993;-78
2021/06/11 01:15:21;;;;;;;5.45;3.58;;;17.60;99.90;;;;;;6214992;23;20063;-79
2021/06/11 01:17:47;;;;;;;4.13;3.47;;;17.50;99.90;;;;;;6214939;23;20068;-79
2021/06/11 01:20:14;;;;;;;7.15;3.65;;;17.50;99.90;;;;;;6214467;23;20051;-79
2021/06/11 01:23:11;;;;;;;3.72;3.05;;;17.50;99.90;;;;;;6214861;23;19993;-79
2021/06/11 01:26:14;;;;;;;3.65;3.45;;;17.30;99.90;;;;;;6213130;23;20005;-79
2021/06/11 01:28:41;;;;;;;4.65;3.40;;;17.20;99.90;;;;;;6214682;23;19993;-79
2021/06/11 01:31:08;;;;;;;3.40;3.10;;;17.20;99.90;;;;;;6215051;23;19997;-79
2021/06/11 01:33:35;;;;;;;4.00;3.50;;;17.20;99.90;;;;;;6214503;23;19993;-78
2021/06/11 01:36:09;;;;;;;4.90;4.28;;;17.20;99.90;;;;;;6214583;23;20004;-78
2021/06/11 01:38:41;;;;;;;4.13;3.83;;;17.20;99.90;;;;;;6213307;23;20466;-79
2021/06/11 01:41:13;;;;;;;12.77;4.13;;;17.10;99.90;;;;;;6214854;23;19996;-79
2021/06/11 01:43:41;;;;;;;3.80;3.50;;;17.10;99.90;;;;;;6214512;23;20196;-79
2021/06/11 01:46:12;;;;;;;6.65;3.58;;;16.90;99.90;;;;;;6214660;23;20001;-79
2021/06/11 01:48:39;;;;;;;3.85;3.40;;;16.80;99.90;;;;;;6214544;23;20309;-79
2021/06/11 01:51:08;;;;;;;4.28;3.25;;;16.90;99.90;;;;;;6214627;23;20079;-78
2021/06/11 01:53:38;;;;;;;4.18;3.45;;;16.80;99.90;;;;;;6214557;23;20023;-78
2021/06/11 01:56:04;;;;;;;3.60;3.30;;;16.80;99.90;;;;;;6214974;23;19996;-78
2021/06/11 01:58:31;;;;;;;4.03;3.03;;;16.80;99.90;;;;;;6213056;23;20059;-78
2021/06/11 02:00:57;;;;;;;5.45;3.20;;;16.80;99.90;;;;;;6214627;23;20007;-78
2021/06/11 02:03:24;;;;;;;5.13;4.05;;;16.80;99.90;;;;;;6214222;23;20000;-78
2021/06/11 02:05:52;;;;;;;6.13;3.42;;;16.80;99.90;;;;;;6214539;23;20024;-78
2021/06/11 02:08:19;;;;;;;4.60;3.38;;;16.50;99.90;;;;;;6214653;23;20470;-78
2021/06/11 02:10:46;;;;;;;5.13;3.10;;;16.40;99.90;;;;;;6216592;23;19996;-78
2021/06/11 02:13:13;;;;;;;7.78;3.50;;;16.50;99.90;;;;;;6217122;23;20021;-78
2021/06/11 02:15:39;;;;;;;7.20;3.35;;;16.30;99.90;;;;;;6216778;23;20008;-78
2021/06/11 02:18:06;;;;;;;5.22;3.25;;;16.20;99.90;;;;;;6215924;23;20004;-78
2021/06/11 02:20:32;;;;;;;7.32;3.58;;;16.30;99.90;;;;;;6216688;23;20000;-79
2021/06/11 02:22:58;;;;;;;6.68;3.60;;;16.40;99.90;;;;;;6216566;23;20000;-79
2021/06/11 02:25:26;;;;;;;4.93;4.32;;;16.30;99.90;;;;;;6216454;23;19996;-78
2021/06/11 02:27:54;;;;;;;5.40;3.20;;;16.40;99.90;;;;;;6216530;23;20023;-78
2021/06/11 02:30:20;;;;;;;4.00;3.53;;;16.40;99.90;;;;;;6216302;23;19997;-79
2021/06/11 02:32:47;;;;;;;5.40;3.40;;;16.40;99.90;;;;;;6216172;23;19997;-78
2021/06/11 02:35:18;;;;;;;3.63;3.33;;;16.40;99.90;;;;;;6216436;23;20373;-78
2021/06/11 02:37:45;;;;;;;4.75;3.05;;;16.30;99.90;;;;;;6216524;23;19997;-78
2021/06/11 02:40:12;;;;;;;3.30;3.10;;;16.30;99.90;;;;;;6216565;23;19992;-78
2021/06/11 02:42:38;;;;;;;5.38;3.55;;;16.30;99.90;;;;;;6216222;23;20020;-79
2021/06/11 02:45:11;;;;;;;4.70;3.90;;;16.30;99.90;;;;;;6216264;23;19992;-78
2021/06/11 02:47:43;;;;;;;4.00;3.67;;;16.40;99.90;;;;;;6216416;23;19997;-79
2021/06/11 02:50:19;;;;;;;5.90;3.70;;;16.40;99.90;;;;;;6216077;23;20003;-79
2021/06/11 02:52:50;;;;;;;4.15;3.75;;;16.40;99.90;;;;;;6214367;23;20044;-79
2021/06/11 02:55:17;;;;;;;5.15;3.97;;;16.30;99.90;;;;;;6216274;23;19993;-79
2021/06/11 02:57:47;;;;;;;4.50;3.50;;;16.40;99.90;;;;;;6216317;23;20316;-78
2021/06/11 03:00:14;;;;;;;7.18;3.60;;;16.40;99.90;;;;;;6215898;23;20364;-79
2021/06/11 03:03:06;;;;;;;4.43;4.03;;;16.40;99.90;;;;;;6216135;23;20067;-79
2021/06/11 03:05:32;;;;;;;4.28;3.45;;;16.40;99.90;;;;;;6215943;23;20001;-79
2021/06/11 03:07:59;;;;;;;3.17;2.95;;;16.30;99.90;;;;;;6216030;23;19999;-78
2021/06/11 03:10:30;;;;;;;4.68;4.00;;;16.20;99.90;;;;;;6214462;23;20324;-78
2021/06/11 03:13:02;;;;;;;8.40;4.13;;;16.10;99.90;;;;;;6215905;23;19997;-78
2021/06/11 03:15:32;;;;;;;4.03;3.63;;;16.10;99.90;;;;;;6215722;23;20043;-78
2021/06/11 03:18:13;;;;;;;4.65;3.95;;;16.10;99.90;;;;;;6215914;23;20031;-78
2021/06/11 03:20:41;;;;;;;4.00;3.70;;;16.10;99.90;;;;;;6215733;23;20059;-79
2021/06/11 03:23:19;;;;;;;4.30;3.70;;;16.20;99.90;;;;;;6215949;23;20024;-78
2021/06/11 03:25:51;;;;;;;4.05;3.53;;;16.20;99.90;;;;;;6216086;23;20447;-79
2021/06/11 03:28:40;;;;;;;3.10;2.90;;;16.20;99.90;;;;;;6215888;23;20335;-79
2021/06/11 03:31:14;;;;;;;8.05;3.38;;;16.10;99.90;;;;;;6216039;23;20019;-79
2021/06/11 03:33:43;;;;;;;5.38;3.83;;;16.10;99.90;;;;;;6216018;23;20339;-78
2021/06/11 03:36:16;;;;;;;4.20;3.87;;;16.10;99.90;;;;;;6215788;23;20071;-78
2021/06/11 03:38:46;;;;;;;4.45;3.67;;;16.10;99.90;;;;;;6215898;23;19997;-78
2021/06/11 03:41:13;;;;;;;3.67;3.38;;;16.10;99.90;;;;;;6215817;23;19996;-78
2021/06/11 03:43:39;;;;;;;4.43;3.92;;;16.10;99.90;;;;;;6215460;23;20067;-78
2021/06/11 03:46:06;;;;;;;4.50;3.25;;;16.10;99.90;;;;;;6215547;23;20024;-79
2021/06/11 03:48:34;;;;;;;4.13;3.72;;;16.00;99.90;;;;;;6215686;23;20447;-78
2021/06/11 03:51:02;;;;;;;6.53;3.50;;;15.90;99.90;;;;;;6215554;23;19996;-79
2021/06/11 03:53:29;;;;;;;5.10;3.67;;;15.70;99.90;;;;;;6215687;23;20003;-78
2021/06/11 03:56:00;;;;;;;7.15;3.60;;;15.60;99.90;;;;;;6215885;23;20000;-79
2021/06/11 03:58:43;;;;;;;3.80;3.40;;;15.60;99.90;;;;;;6215295;23;20366;-79
2021/06/11 04:01:16;;;;;;;3.67;3.33;;;15.60;99.90;;;;;;6215687;23;20004;-78
2021/06/11 04:03:42;;;;;;;5.13;3.92;;;15.60;99.90;;;;;;6213982;23;20462;-78
2021/06/11 04:06:13;;;;;;;6.35;4.53;;;15.70;99.90;;;;;;6215319;23;20051;-78
2021/06/11 04:08:39;;;;;;;4.20;3.90;;;15.60;99.90;;;;;;6215658;23;19992;-79
2021/06/11 04:11:06;;;;;;;6.20;4.20;;;15.60;99.90;;;;;;6215620;23;19996;-78
2021/06/11 04:13:50;;;;;;;4.15;3.33;;;15.70;99.90;;;;;;6215032;23;19996;-78
2021/06/11 04:16:27;;;;;;;4.18;3.40;;;15.80;99.90;;;;;;6215358;23;20024;-78
2021/06/11 04:18:56;;;;;;;3.85;3.55;;;15.70;99.90;;;;;;6215475;23;20343;-78
2021/06/11 04:21:23;;;;;;;3.30;3.00;;;15.60;99.90;;;;;;6215326;23;20001;-78
2021/06/11 04:23:52;;;;;;;3.97;3.22;;;15.50;99.90;;;;;;6215508;23;20422;-79
2021/06/11 04:26:21;;;;;;;5.22;3.92;;;15.40;99.90;;;;;;6215237;23;19997;-78
2021/06/11 04:28:48;;;;;;;4.70;3.92;;;15.40;99.90;;;;;;6214871;23;19997;-78
2021/06/11 04:31:14;;;;;;;3.58;3.33;;;15.50;99.90;;;;;;6215313;23;20078;-78
2021/06/11 04:33:40;;;;;;;7.15;4.68;;;15.50;99.90;;;;;;6214939;23;20004;-79
2021/06/11 04:36:09;;;;;;;4.30;3.90;;;15.60;99.90;;;;;;6215041;23;20063;-78
2021/06/11 04:38:59;;;;;;;4.03;3.70;;;15.60;99.90;;;;;;6215281;23;20007;-79
2021/06/11 04:41:26;;;;;;;4.88;3.97;;;15.60;99.90;;;;;;6214698;23;20570;-79
2021/06/11 04:43:52;;;;;;;7.03;3.72;;;15.50;99.90;;;;;;6213565;23;20443;-78
2021/06/11 04:46:18;;;;;;;5.57;5.00;;;15.50;99.90;;;;;;6214965;23;20001;-78
2021/06/11 04:48:45;;;;;;;67.03;45.83;;;15.40;99.90;;;;;;6213409;23;20052;-78
2021/06/11 04:51:11;;;;;;;17.83;13.73;;;15.30;99.90;;;;;;6214934;23;20443;-78
2021/06/11 04:53:36;;;;;;;25.35;18.15;;;15.30;99.90;;;;;;6215092;23;20003;-78
2021/06/11 04:56:07;;;;;;;27.83;20.60;;;15.50;99.90;;;;;;6214525;23;19997;-78
2021/06/11 04:58:33;;;;;;;24.23;15.65;;;15.60;99.90;;;;;;6219022;23;20308;-78
2021/06/11 05:00:59;;;;;;;7.22;6.35;;;15.60;99.90;;;;;;6215174;23;20000;-78
2021/06/11 05:03:25;;;;;;;11.95;7.50;;;15.50;99.90;;;;;;6214895;23;20075;-78
2021/06/11 05:05:50;;;;;;;6.32;5.72;;;15.30;99.90;;;;;;6215070;23;19996;-78
2021/06/11 05:08:16;;;;;;;14.88;9.40;;;15.30;99.90;;;;;;6214710;23;20000;-79
2021/06/11 05:10:42;;;;;;;19.13;14.40;;;15.40;99.90;;;;;;6214653;23;20094;-78
2021/06/11 05:13:08;;;;;;;20.55;14.57;;;15.30;99.90;;;;;;6215015;23;19993;-79
2021/06/11 05:15:33;;;;;;;13.30;9.70;;;15.30;99.90;;;;;;6214775;23;19996;-79
2021/06/11 05:18:04;;;;;;;22.02;16.98;;;15.20;99.90;;;;;;6213278;23;20009;-78
2021/06/11 05:20:30;;;;;;;18.98;15.10;;;15.20;99.90;;;;;;6214948;23;20431;-79
2021/06/11 05:22:56;;;;;;;8.60;7.00;;;15.30;99.90;;;;;;6214887;23;20007;-78
2021/06/11 05:25:22;;;;;;;10.57;7.38;;;15.20;99.90;;;;;;6212318;23;20458;-78
2021/06/11 05:27:48;;;;;;;14.93;7.00;;;15.30;99.90;;;;;;6214167;23;19993;-79
2021/06/11 05:30:14;;;;;;;10.50;5.80;;;15.30;99.90;;;;;;6214295;23;19997;-78
2021/06/11 05:32:40;;;;;;;5.85;4.25;;;15.30;99.90;;;;;;6212839;23;20378;-78
2021/06/11 05:35:06;;;;;;;5.22;4.40;;;15.50;99.90;;;;;;6214835;23;19993;-78
2021/06/11 05:37:32;;;;;;;4.72;4.38;;;15.50;99.90;;;;;;6212800;23;20004;-78
2021/06/11 05:39:57;;;;;;;5.00;4.55;;;15.70;99.90;;;;;;6213934;23;20332;-78
2021/06/11 05:42:23;;;;;;;4.82;4.43;;;15.90;99.90;;;;;;6214575;23;19996;-79
2021/06/11 05:44:49;;;;;;;7.07;5.10;;;16.10;99.90;;;;;;6214388;23;20005;-78
2021/06/11 05:47:14;;;;;;;6.20;4.95;;;16.20;99.90;;;;;;6214347;23;20020;-78
2021/06/11 05:49:40;;;;;;;4.50;4.10;;;16.30;99.90;;;;;;6212913;23;19997;-79
2021/06/11 05:52:06;;;;;;;10.10;4.00;;;16.30;99.90;;;;;;6213246;23;20367;-78
2021/06/11 05:54:32;;;;;;;8.23;4.25;;;16.40;99.90;;;;;;6211834;23;20455;-78
2021/06/11 05:56:58;;;;;;;5.63;4.05;;;16.40;99.90;;;;;;6213902;23;20000;-78
2021/06/11 05:59:23;;;;;;;8.90;4.45;;;16.40;99.90;;;;;;6212785;23;20004;-79
2021/06/11 06:01:49;;;;;;;5.07;4.35;;;16.50;99.90;;;;;;6213449;23;20046;-78
2021/06/11 06:04:15;;;;;;;8.27;4.10;;;16.40;99.90;;;;;;6213429;23;20062;-78
2021/06/11 06:06:40;;;;;;;5.13;4.45;;;16.50;99.90;;;;;;6213170;23;19996;-78
2021/06/11 06:09:06;;;;;;;5.82;4.22;;;16.60;99.90;;;;;;6214301;23;20068;-78
2021/06/11 06:11:32;;;;;;;8.00;4.90;;;16.80;99.90;;;;;;6214412;23;20051;-78
2021/06/11 06:13:58;;;;;;;5.22;4.28;;;16.90;99.90;;;;;;6215075;23;20386;-78
2021/06/11 06:16:23;;;;;;;8.07;4.07;;;17.10;99.90;;;;;;6213097;23;20001;-78
2021/06/11 06:18:49;;;;;;;4.40;4.10;;;17.20;99.90;;;;;;6214139;23;20004;-78
2021/06/11 06:21:15;;;;;;;5.60;4.18;;;17.20;99.90;;;;;;6214341;23;20004;-78
2021/06/11 06:23:41;;;;;;;8.73;4.53;;;17.30;99.90;;;;;;6214114;23;20004;-78
2021/06/11 06:26:06;;;;;;;6.05;5.30;;;17.50;99.90;;;;;;6214187;23;20000;-78
2021/06/11 06:28:33;;;;;;;5.10;4.60;;;17.70;99.90;;;;;;6213542;23;20051;-78
2021/06/11 06:30:58;;;;;;;6.00;5.05;;;17.80;99.90;;;;;;6214482;23;19997;-79
2021/06/11 06:33:24;;;;;;;5.47;4.55;;;17.80;99.90;;;;;;6214239;23;20024;-78
2021/06/11 06:35:50;;;;;;;7.35;5.50;;;17.90;99.90;;;;;;6214178;23;20007;-78
2021/06/11 06:38:16;;;;;;;5.90;5.30;;;18.00;99.90;;;;;;6212409;23;20324;-78
2021/06/11 06:40:44;;;;;;;6.38;4.60;;;17.90;99.90;;;;;;6214391;23;20003;-79
2021/06/11 06:43:12;;;;;;;8.63;4.47;;;18.00;99.90;;;;;;6214408;23;20028;-78
2021/06/11 06:45:43;;;;;;;8.10;4.30;;;18.00;99.90;;;;;;6214068;23;20084;-78
2021/06/11 06:48:10;;;;;;;6.53;5.05;;;18.30;99.90;;;;;;6214218;23;20068;-78
2021/06/11 06:50:37;;;;;;;5.07;4.68;;;18.60;99.90;;;;;;6214306;23;20001;-78
2021/06/11 06:53:05;;;;;;;4.82;4.20;;;18.90;99.90;;;;;;6213443;23;20009;-78
2021/06/11 06:55:32;;;;;;;7.18;4.80;;;19.10;99.90;;;;;;6212503;23;20001;-78
2021/06/11 06:58:03;;;;;;;8.25;4.63;;;19.30;99.90;;;;;;6216134;23;20086;-78
2021/06/11 07:00:29;;;;;;;4.60;4.25;;;19.30;99.90;;;;;;6216293;23;19993;-79
2021/06/11 07:02:57;;;;;;;4.72;4.25;;;19.40;99.90;;;;;;6216165;23;20078;-78
2021/06/11 07:05:24;;;;;;;7.25;4.22;;;19.40;99.90;;;;;;6216208;23;20473;-78
2021/06/11 07:07:50;;;;;;;4.20;3.90;;;19.50;99.90;;;;;;6215542;23;19996;-79
2021/06/11 07:10:16;;;;;;;5.70;4.35;;;19.50;99.90;;;;;;6216278;23;19997;-79
2021/06/11 07:12:42;;;;;;;4.53;4.13;;;19.40;99.90;;;;;;6216091;23;20526;-79
2021/06/11 07:15:11;;;;;;;7.55;4.45;;;19.50;99.90;;;;;;6216289;23;20327;-79
2021/06/11 07:17:40;;;;;;;16.98;5.07;;;19.70;99.90;;;;;;6216070;23;20079;-79
2021/06/11 07:20:07;;;;;;;5.72;4.72;;;19.90;99.90;;;;;;6214982;23;20011;-78
2021/06/11 07:22:33;;;;;;;4.70;4.15;;;20.00;99.90;;;;;;6213781;23;20342;-78
2021/06/11 07:25:04;;;;;;;4.63;3.90;;;20.10;99.90;;;;;;6215881;23;20001;-78
2021/06/11 07:27:33;;;;;;;4.80;4.40;;;20.20;99.90;;;;;;6216211;23;20001;-79
2021/06/11 07:30:00;;;;;;;4.63;4.20;;;20.20;99.90;;;;;;6215729;23;19993;-78
2021/06/11 07:32:26;;;;;;;4.57;4.18;;;20.20;99.90;;;;;;6216153;23;19993;-78
2021/06/11 07:34:52;;;;;;;4.30;3.97;;;20.40;99.90;;;;;;6213716;23;20000;-78
2021/06/11 07:37:19;;;;;;;4.07;3.67;;;20.50;99.90;;;;;;6215485;23;20033;-78
2021/06/11 07:39:44;;;;;;;4.43;3.60;;;20.70;99.90;;;;;;6215812;23;19997;-78
2021/06/11 07:42:12;;;;;;;5.10;4.60;;;20.80;99.90;;;;;;6215586;23;20001;-78
2021/06/11 07:44:38;;;;;;;3.42;3.13;;;21.00;99.90;;;;;;6214181;23;20476;-78
2021/06/11 07:47:05;;;;;;;4.20;3.90;;;21.10;99.90;;;;;;6215737;23;20063;-79
2021/06/11 07:49:31;;;;;;;4.07;3.70;;;21.40;99.90;;;;;;6215493;23;19993;-79
2021/06/11 07:51:57;;;;;;;4.43;3.80;;;21.50;99.90;;;;;;6214905;23;20144;-79
2021/06/11 07:54:23;;;;;;;4.47;3.28;;;21.70;99.90;;;;;;6215887;23;20032;-79
2021/06/11 07:56:49;;;;;;;3.97;3.63;;;21.80;99.90;;;;;;6214877;23;20481;-79
2021/06/11 07:59:15;;;;;;;3.95;3.65;;;22.10;99.90;;;;;;6215607;23;19997;-79
2021/06/11 08:01:42;;;;;;;4.20;3.90;;;22.40;99.90;;;;;;6215740;23;20024;-79
2021/06/11 08:04:07;;;;;;;5.93;3.72;;;22.70;99.90;;;;;;6215018;23;20024;-79
2021/06/11 08:06:33;;;;;;;7.30;4.07;;;23.10;99.90;;;;;;6215185;23;20004;-79
2021/06/11 08:08:59;;;;;;;4.60;3.90;;;23.60;99.90;;;;;;6214602;23;20004;-79
2021/06/11 08:11:25;;;;;;;4.30;3.58;;;24.00;99.90;;;;;;6215583;23;20336;-79
2021/06/11 08:13:51;;;;;;;4.57;4.20;;;23.70;99.90;;;;;;6215310;23;19997;-79
2021/06/11 08:16:17;;;;;;;5.43;3.42;;;23.40;99.90;;;;;;6215377;23;20054;-79
2021/06/11 08:18:43;;;;;;;4.50;3.67;;;23.50;99.90;;;;;;6214870;23;20390;-80
2021/06/11 08:21:09;;;;;;;6.70;3.85;;;23.50;99.90;;;;;;6215463;23;19996;-80
2021/06/11 08:23:34;;;;;;;4.22;3.92;;;23.20;99.90;;;;;;6213458;23;20392;-80
2021/06/11 08:26:00;;;;;;;3.78;3.47;;;23.10;99.90;;;;;;6214685;23;20001;-80
2021/06/11 08:28:26;;;;;;;4.90;3.78;;;23.10;99.90;;;;;;6213721;23;20000;-79
2021/06/11 08:30:52;;;;;;;4.53;4.03;;;23.10;99.90;;;;;;6215070;23;20525;-79
2021/06/11 08:33:18;;;;;;;7.15;3.88;;;23.00;99.90;;;;;;6214913;23;19997;-80
2021/06/11 08:35:43;;;;;;;5.78;4.10;;;22.90;99.90;;;;;;6214972;23;20087;-80
2021/06/11 08:38:09;;;;;;;6.55;4.35;;;22.90;99.90;;;;;;6214862;23;20417;-79
2021/06/11 08:40:35;;;;;;;5.03;3.88;;;22.80;99.90;;;;;;6214996;23;20032;-80
2021/06/11 08:43:03;;;;;;;5.70;3.85;;;22.70;99.90;;;;;;6214686;23;19997;-79
2021/06/11 08:45:29;;;;;;;5.15;3.55;;;22.70;99.90;;;;;;6215399;23;20003;-79
2021/06/11 08:47:55;;;;;;;5.47;4.30;;;22.60;99.90;;;;;;6214790;23;20040;-79
2021/06/11 08:50:26;;;;;;;5.90;3.75;;;22.60;99.90;;;;;;6215212;23;20001;-79
2021/06/11 08:52:53;;;;;;;5.20;4.25;;;22.70;99.90;;;;;;6214788;23;20017;-79
2021/06/11 08:55:20;;;;;;;4.75;4.00;;;22.90;99.90;;;;;;6215117;23;20378;-79
2021/06/11 08:57:46;;;;;;;3.80;3.50;;;23.10;99.90;;;;;;6215227;23;20028;-79
2021/06/11 09:00:12;;;;;;;5.55;3.67;;;23.00;99.90;;;;;;6213395;23;20354;-79
2021/06/11 09:03:06;;;;;;;7.55;4.18;;;23.20;99.90;;;;;;6214606;23;20003;-79
2021/06/11 09:05:32;;;;;;;3.92;3.53;;;23.30;99.90;;;;;;6214877;23;20024;-79
2021/06/11 09:08:14;;;;;;;5.20;4.70;;;23.40;99.90;;;;;;6214968;23;20004;-79
2021/06/11 09:10:40;;;;;;;5.43;3.80;;;23.70;99.90;;;;;;6214983;23;19996;-79
2021/06/11 09:13:06;;;;;;;4.90;4.05;;;23.90;99.90;;;;;;6214921;23;20043;-79
2021/06/11 09:15:31;;;;;;;3.78;3.40;;;24.30;99.90;;;;;;6214983;23;20000;-79
2021/06/11 09:17:58;;;;;;;4.60;3.72;;;24.30;99.90;;;;;;6214349;23;20068;-79
2021/06/11 09:20:28;;;;;;;5.47;4.60;;;24.20;99.90;;;;;;6214635;23;20431;-79
2021/06/11 09:22:56;;;;;;;8.52;4.82;;;24.40;99.90;;;;;;6214871;23;20024;-79
2021/06/11 09:25:22;;;;;;;4.57;3.80;;;24.80;99.90;;;;;;6214665;23;20308;-79
2021/06/11 09:28:00;;;;;;;4.38;3.55;;;24.80;99.90;;;;;;6214982;23;20018;-79
2021/06/11 09:30:33;;;;;;;5.10;4.03;;;25.40;99.90;;;;;;6214942;23;19993;-79
2021/06/11 09:33:03;;;;;;;4.43;4.00;;;26.20;99.90;;;;;;6214412;23;20043;-79
2021/06/11 09:35:44;;;;;;;3.50;3.20;;;25.80;99.90;;;;;;6214758;23;20068;-79
2021/06/11 09:38:14;;;;;;;4.53;4.13;;;26.10;99.90;;;;;;6214601;23;20000;-79
2021/06/11 09:40:45;;;;;;;4.07;3.78;;;26.10;99.90;;;;;;6213121;23;20004;-79
2021/06/11 09:43:11;;;;;;;3.97;3.67;;;26.00;99.90;;;;;;6214521;23;20000;-79
2021/06/11 09:45:38;;;;;;;25.95;4.68;;;25.70;99.90;;;;;;6214319;23;20003;-79
2021/06/11 09:48:16;;;;;;;4.05;3.30;;;25.30;99.90;;;;;;6214761;23;20000;-79
2021/06/11 09:50:48;;;;;;;4.25;3.95;;;25.20;99.90;;;;;;6214491;23;19996;-79
2021/06/11 09:53:14;;;;;;;6.13;4.10;;;24.90;99.90;;;;;;6214396;23;20004;-79
2021/06/11 09:55:46;;;;;;;6.95;4.20;;;24.80;99.90;;;;;;6214748;23;20004;-79
2021/06/11 09:58:17;;;;;;;4.00;3.70;;;25.00;99.90;;;;;;6214514;23;20000;-79
2021/06/11 10:01:16;;;;;;;3.53;3.33;;;25.30;99.90;;;;;;6214274;23;19993;-79
2021/06/11 10:03:45;;;;;;;4.45;3.80;;;25.40;99.90;;;;;;6093430;23;20029;-79
2021/06/11 10:06:13;;;;;;;6.35;3.47;;;25.30;99.90;;;;;;6093276;23;20002;-79
2021/06/11 10:08:40;;;;;;;5.38;4.35;;;25.40;99.90;;;;;;6093493;23;19999;-79
2021/06/11 10:11:08;;;;;;;5.20;4.05;;;25.90;99.90;;;;;;6069421;23;20009;-79
2021/06/11 10:13:35;;;;;;;4.10;3.80;;;26.20;99.90;;;;;;6093248;23;20003;-80
2021/06/11 10:16:19;;;;;;;8.02;3.55;;;26.90;99.90;;;;;;6093138;23;20060;-80
2021/06/11 10:18:45;;;;;;;3.75;3.45;;;27.30;99.90;;;;;;6093499;23;20006;-80
2021/06/11 10:21:12;;;;;;;4.63;3.20;;;27.80;99.90;;;;;;6093501;23;20009;-80
2021/06/11 10:23:39;;;;;;;4.95;3.53;;;28.70;99.90;;;;;;6097021;23;20021;-80
2021/06/11 10:26:07;;;;;;;3.70;3.40;;;28.90;99.90;;;;;;6093000;23;20002;-80
2021/06/11 10:28:42;;;;;;;6.20;3.92;;;28.70;99.90;;;;;;6093501;23;20082;-80
2021/06/11 10:31:15;;;;;;;4.38;3.55;;;29.40;99.90;;;;;;6093647;23;19999;-81
2021/06/11 10:33:47;;;;;;;4.68;3.60;;;29.30;99.90;;;;;;6095390;23;20006;-80
2021/06/11 10:36:25;;;;;;;3.85;3.55;;;29.20;99.90;;;;;;6094886;23;20013;-80
2021/06/11 10:38:53;;;;;;;3.90;3.60;;;30.20;99.90;;;;;;6136054;23;20380;-80
2021/06/11 10:41:19;;;;;;;4.13;3.83;;;29.40;99.90;;;;;;6216254;23;20339;-80
2021/06/11 10:43:45;;;;;;;5.55;3.75;;;28.60;99.90;;;;;;6215823;23;20004;-80
2021/06/11 10:46:24;;;;;;;4.32;3.97;;;28.30;99.90;;;;;;6216137;23;20000;-80
2021/06/11 10:48:56;;;;;;;6.65;4.03;;;30.80;99.90;;;;;;6216242;23;20099;-80
2021/06/11 10:51:34;;;;;;;5.35;3.83;;;31.40;99.90;;;;;;6215977;23;20005;-80
2021/06/11 10:54:22;;;;;;;6.10;3.70;;;29.90;99.90;;;;;;6216381;23;20027;-80
2021/06/11 10:57:01;;;;;;;3.67;3.33;;;28.70;99.90;;;;;;6215877;23;20008;-80
2021/06/11 10:59:38;;;;;;;3.85;3.58;;;28.70;99.90;;;;;;6215566;23;20020;-80
2021/06/11 11:02:05;;;;;;;4.18;3.80;;;32.90;99.90;;;;;;6216209;23;20001;-80
2021/06/11 11:04:33;;;;;;;4.35;3.40;;;36.10;92.20;;;;;;6216123;23;20027;-80
2021/06/11 11:07:20;;;;;;;6.38;3.47;;;35.50;89.90;;;;;;6216033;23;20000;-81
2021/06/11 11:09:54;;;;;;;3.97;3.65;;;38.10;79.20;;;;;;6215978;23;20047;-81
2021/06/11 11:12:20;;;;;;;4.53;3.85;;;39.20;74.20;;;;;;6215652;23;20498;-81
2021/06/11 11:14:46;;;;;;;5.40;3.45;;;37.80;75.60;;;;;;6214008;23;20342;-81
2021/06/11 11:17:13;;;;;;;3.85;3.50;;;34.50;82.60;;;;;;6216164;23;20343;-81
2021/06/11 11:19:50;;;;;;;4.10;3.58;;;32.00;87.10;;;;;;6216025;23;20000;-81
2021/06/11 11:22:37;;;;;;;3.90;3.60;;;30.90;93.00;;;;;;6215867;23;19997;-81
2021/06/11 11:25:13;;;;;;;3.75;3.40;;;29.40;97.30;;;;;;6216203;23;20001;-80
2021/06/11 11:27:40;;;;;;;25.95;4.72;;;29.10;98.90;;;;;;6215528;23;20003;-80
2021/06/11 11:30:06;;;;;;;180.45;12.38;;;28.70;99.90;;;;;;6215769;23;20003;-80
2021/06/11 11:32:32;;;;;;;26.75;4.50;;;28.40;99.90;;;;;;6215803;23;19993;-80
2021/06/11 11:34:59;;;;;;;4.15;3.33;;;28.60;99.90;;;;;;6216024;23;19997;-80
2021/06/11 11:37:25;;;;;;;7.30;4.18;;;30.50;98.10;;;;;;6215839;23;20396;-80
2021/06/11 11:39:51;;;;;;;4.13;3.15;;;35.60;90.90;;;;;;6215962;23;20024;-80
2021/06/11 11:42:17;;;;;;;5.15;3.50;;;33.50;85.10;;;;;;6214983;23;20343;-80
2021/06/11 11:44:43;;;;;;;6.28;3.80;;;31.70;89.90;;;;;;6215671;23;19997;-80
2021/06/11 11:47:09;;;;;;;5.35;3.53;;;34.40;89.00;;;;;;6216034;23;19996;-80
2021/06/11 11:49:35;;;;;;;4.63;3.60;;;39.10;80.80;;;;;;6215622;23;19993;-80
2021/06/11 11:52:02;;;;;;;3.75;3.45;;;41.00;67.70;;;;;;6215469;23;20351;-80
2021/06/11 11:54:29;;;;;;;7.20;3.20;;;40.90;60.70;;;;;;6215692;23;20043;-80
2021/06/11 11:56:55;;;;;;;3.80;3.45;;;37.60;61.40;;;;;;6215089;23;20000;-80
2021/06/11 11:59:20;;;;;;;3.90;3.42;;;35.40;68.20;;;;;;6215618;23;20024;-80
2021/06/11 12:01:46;;;;;;;5.25;3.35;;;36.00;68.70;;;;;;6215818;23;20000;-80
2021/06/11 12:04:14;;;;;;;5.90;3.63;;;36.60;66.40;;;;;;6215479;23;20035;-82
2021/06/11 12:06:41;;;;;;;4.13;3.65;;;34.00;67.80;;;;;;6215322;23;20003;-82
2021/06/11 12:09:07;;;;;;;3.13;2.92;;;34.90;73.00;;;;;;6215576;23;20039;-81
2021/06/11 12:11:33;;;;;;;3.15;2.95;;;35.80;65.50;;;;;;6215053;23;20339;-81
2021/06/11 12:13:59;;;;;;;4.30;3.63;;;36.30;65.40;;;;;;6215584;23;20000;-81
2021/06/11 12:16:25;;;;;;;3.25;3.03;;;38.60;64.60;;;;;;6215418;23;19997;-80
2021/06/11 12:18:51;;;;;;;11.60;2.83;;;33.90;66.20;;;;;;6215300;23;20007;-81
2021/06/11 12:21:16;;;;;;;5.70;3.17;;;32.10;74.50;;;;;;6215476;23;20067;-81
2021/06/11 12:23:42;;;;;;;4.05;3.70;;;30.80;77.20;;;;;;6215382;23;20051;-82
2021/06/11 12:26:08;;;;;;;3.65;3.30;;;29.80;82.20;;;;;;6214930;23;20071;-80
2021/06/11 12:28:34;;;;;;;4.25;3.85;;;29.50;85.40;;;;;;6215232;23;19992;-80
2021/06/11 12:31:01;;;;;;;3.10;2.90;;;29.40;85.90;;;;;;6215384;23;20000;-80
2021/06/11 12:33:27;;;;;;;4.32;3.28;;;29.20;88.50;;;;;;6215200;23;20377;-80
2021/06/11 12:35:54;;;;;;;4.18;3.28;;;28.90;90.70;;;;;;6215274;23;20003;-80
2021/06/11 12:38:20;;;;;;;3.72;2.92;;;28.80;90.40;;;;;;6215399;23;20005;-80
2021/06/11 12:40:48;;;;;;;3.80;3.10;;;29.80;88.60;;;;;;6214600;23;20375;-80
2021/06/11 12:43:17;;;;;;;2.95;2.75;;;32.20;86.00;;;;;;6215289;23;20023;-80
2021/06/11 12:45:43;;;;;;;3.97;3.60;;;31.00;77.50;;;;;;6214917;23;20001;-80
2021/06/11 12:48:12;;;;;;;31.35;4.85;;;29.90;85.00;;;;;;6215031;23;20055;-80
2021/06/11 12:50:41;;;;;;;4.43;3.43;;;29.20;87.10;;;;;;6214879;23;20005;-80
2021/06/11 12:53:07;;;;;;;4.85;3.08;;;29.10;89.50;;;;;;6214795;23;20251;-80